Date,TemperatureHighF,TemperatureAvgF,TemperatureLowF,DewpointHighF,DewpointAvgF,DewpointLowF,HumidityHigh,HumidityAvg,HumidityLow,PressureMaxIn,PressureMinIn,WindSpeedMaxMPH,WindSpeedAvgMPH,GustSpeedMaxMPH,PrecipitationSumIn
2013-1-1,21.7,15.0,8.2,15.9,9.8,4.0,88,80,66,30.34,30.18,7,3,11,0.02
2013-1-2,31.7,19.6,5.3,22.5,13.7,2.4,90,78,66,30.28,30.15,11,7,18,0.04
2013-1-3,36.7,27.2,14.4,27.5,22.1,9.5,90,81,68,30.42,30.22,8,4,11,0.05
2013-1-4,36.2,24.5,12.2,25.9,18.9,9.3,89,80,65,30.40,30.28,16,7,22,0.01
2013-1-5,37.7,33.4,24.9,33.4,28.8,19.9,89,83,76,30.28,30.06,14,9,25,0.01
2013-1-6,34.6,28.3,22.7,27.6,21.5,17.6,85,76,58,30.36,30.08,8,4,16,0.00
2013-1-7,43.4,33.0,22.5,30.2,24.7,18.4,92,72,57,30.35,30.09,13,8,19,0.00
2013-1-8,46.9,38.8,30.5,34.9,29.6,24.9,80,70,59,30.13,30.01,11,7,15,0.00
2013-1-9,51.6,41.6,33.8,37.3,33.2,29.8,87,73,51,30.46,30.13,10,3,16,0.00
2013-1-10,44.8,39.8,34.8,44.0,36.1,29.0,97,87,66,30.43,29.73,9,4,14,0.51
2013-1-11,58.6,52.6,42.9,52.1,47.8,42.1,97,85,70,29.78,29.63,17,10,25,0.01
2013-1-12,56.3,36.9,22.9,47.6,29.5,20.1,93,75,46,30.04,29.67,14,7,25,0.00
2013-1-13,24.0,18.9,12.0,20.2,12.4,7.5,89,76,63,30.38,29.98,10,4,15,0.00
2013-1-14,28.6,16.5,8.0,12.2,7.8,5.1,89,70,44,30.54,30.37,5,1,8,0.05
2013-1-15,28.1,18.2,6.6,17.0,10.2,2.4,89,72,49,30.46,30.18,4,1,6,0.04
2013-1-16,40.2,28.1,14.2,28.5,18.8,8.4,79,68,47,30.19,29.98,16,8,22,0.00
2013-1-17,37.3,31.5,25.3,30.4,23.5,18.8,89,73,55,30.47,30.14,10,4,14,0.00
2013-1-18,52.2,39.8,25.6,35.1,28.2,20.1,81,64,46,30.46,30.02,18,11,22,0.00
2013-1-19,55.9,47.1,38.5,40.6,34.3,26.5,74,61,49,30.16,29.89,20,11,27,0.00
2013-1-20,38.4,22.7,17.5,25.5,12.1,7.4,79,64,47,30.38,30.16,12,6,23,0.00
2013-1-21,17.6,13.3,11.0,10.3,0.9,-4.6,78,58,44,30.44,30.35,14,5,23,0.00
2013-1-22,16.6,12.8,7.9,9.0,3.3,-2.2,80,65,59,30.53,30.38,7,2,10,0.00
2013-1-23,40.5,23.2,10.2,23.8,14.3,4.7,88,70,48,30.46,30.18,12,5,19,0.00
2013-1-24,23.7,17.3,10.3,12.1,6.0,2.3,74,61,49,30.64,30.26,11,7,19,0.00
2013-1-25,44.4,31.5,23.6,23.8,18.2,11.9,73,58,41,30.27,30.11,12,4,19,0.00
2013-1-26,37.9,26.6,15.3,23.1,14.8,8.0,77,62,40,30.42,30.26,8,4,12,0.00
2013-1-27,51.4,37.0,28.3,49.1,33.2,18.7,95,86,64,30.26,29.83,13,6,20,0.28
2013-1-28,66.8,57.9,51.2,61.3,54.6,48.7,95,89,80,29.90,29.71,13,6,20,0.00
2013-1-29,64.0,54.9,36.8,59.1,52.3,35.4,97,91,73,29.71,29.41,19,7,25,1.36
2013-1-30,36.7,30.2,24.4,35.7,26.1,15.3,96,85,67,29.91,29.31,12,7,21,0.11
2013-1-31,25.1,17.3,6.8,18.9,8.8,-1.7,77,69,60,30.46,29.90,14,7,22,0.00
2013-2-1,26.3,14.4,3.3,18.7,5.8,-3.4,85,69,58,30.51,30.20,13,6,16,0.00
2013-2-2,31.7,28.4,24.0,23.4,20.3,15.8,93,72,64,30.20,30.05,11,5,15,0.00
2013-2-3,34.1,28.2,23.3,27.1,19.9,15.9,95,72,49,30.24,29.94,14,6,21,0.07
2013-2-4,39.7,30.8,24.3,31.0,23.9,17.2,87,76,67,30.01,29.79,11,6,18,0.00
2013-2-5,48.8,34.1,23.1,35.9,28.5,20.1,91,81,59,30.13,29.90,13,5,19,0.00
2013-2-6,51.8,38.5,25.9,37.8,31.1,23.9,95,76,50,30.20,29.99,11,5,15,0.01
2013-2-7,44.7,39.1,32.6,41.2,36.1,30.4,99,89,66,30.12,29.87,14,5,20,0.55
2013-2-8,32.5,31.1,30.2,30.4,28.0,26.9,92,88,85,30.39,30.12,11,5,19,0.00
2013-2-9,40.9,33.7,29.6,33.9,29.5,26.5,93,85,74,30.35,29.94,11,6,15,0.14
2013-2-10,60.3,45.5,35.5,52.1,38.8,26.5,96,79,45,29.95,29.40,25,13,35,0.34
2013-2-11,38.1,35.6,33.8,27.3,24.7,22.9,68,64,60,29.96,29.73,22,13,33,0.00
2013-2-18,54.5,39.2,26.3,48.4,33.4,17.9,94,80,68,29.92,29.46,16,10,31,0.86
2013-2-19,27.8,22.4,17.2,18.2,12.5,9.4,76,66,50,30.35,29.92,14,6,28,0.00
2013-2-20,20.9,17.1,9.2,15.0,9.5,2.8,81,72,65,30.48,30.33,9,5,12,0.00
2013-2-21,28.2,22.5,17.7,27.0,19.9,13.5,95,90,82,30.36,29.82,17,9,24,0.00
2013-2-22,30.8,27.4,18.8,29.8,23.9,14.2,96,87,76,30.06,29.77,14,7,23,0.00
2013-2-23,29.6,20.4,9.5,20.2,15.1,7.2,91,80,67,30.06,30.00,10,4,13,0.05
2013-2-24,38.9,26.4,13.3,27.3,19.7,10.7,91,77,59,30.13,30.03,8,3,10,0.00
2013-2-25,38.7,31.4,20.6,33.6,26.5,17.3,92,82,71,30.10,29.77,18,8,22,0.02
2013-2-26,36.0,32.3,31.0,31.8,31.2,30.0,97,96,81,29.76,29.47,21,12,28,0.01
2013-2-27,32.9,31.0,29.2,31.0,29.4,27.4,96,94,90,29.92,29.70,8,4,16,0.19
2013-2-28,33.6,30.1,28.2,29.2,27.4,25.6,94,89,82,30.15,29.92,10,5,13,0.03
2013-3-1,30.5,27.4,22.6,27.5,23.8,17.9,94,86,73,30.28,30.11,11,6,13,0.11
2013-3-2,31.6,25.2,18.8,21.5,18.9,14.6,90,77,59,30.33,30.24,9,4,13,0.00
2013-3-3,32.3,25.4,13.9,25.7,19.7,11.5,92,79,67,30.24,30.00,7,3,9,0.00
2013-3-4,40.4,35.1,30.7,31.6,29.1,25.7,87,79,63,30.00,29.76,12,7,15,0.02
2013-3-5,33.4,31.5,28.9,31.0,27.1,22.0,95,84,69,30.22,29.88,16,7,23,0.18
2013-3-6,32.5,27.9,19.6,24.1,21.4,15.9,90,77,67,30.41,30.22,13,6,23,0.02
2013-3-7,36.7,26.5,14.7,27.2,21.8,12.4,100,83,65,30.43,30.32,9,3,11,0.01
2013-3-8,44.2,36.0,25.6,34.1,29.9,23.2,93,79,64,30.38,30.13,11,4,14,0.00
2013-3-9,49.4,42.0,36.9,40.8,37.2,33.1,95,84,68,30.14,29.71,12,5,19,1.29
2013-3-10,47.8,43.4,36.0,46.8,42.5,35.0,98,97,93,29.75,29.52,15,5,19,0.40
2013-3-11,36.0,32.4,29.5,34.9,29.0,24.7,96,87,75,29.97,29.68,12,8,19,0.00
2013-3-12,39.8,31.5,24.5,30.7,25.5,21.4,90,79,60,30.25,29.97,13,6,23,0.00
2013-3-13,39.1,30.2,23.4,23.4,20.0,17.4,82,67,46,30.46,30.25,9,4,16,0.00
2013-3-14,57.9,41.4,28.2,44.0,31.9,20.6,83,70,52,30.39,30.06,12,5,18,0.00
2013-3-15,70.8,50.4,32.2,54.7,42.4,30.3,95,76,51,30.07,29.63,12,2,16,0.00
2013-3-16,49.7,41.0,37.4,44.8,36.9,32.2,91,86,75,30.02,29.62,12,7,19,0.00
2013-3-20,32.5,28.1,23.3,15.0,12.5,9.9,68,52,41,30.30,30.15,11,6,20,0.00
2013-3-21,35.1,25.7,17.2,23.1,15.5,10.9,80,66,46,30.16,30.00,7,2,11,0.00
2013-3-22,37.7,31.7,25.3,27.7,23.0,19.4,82,71,53,30.07,29.99,8,3,13,0.00
2013-3-23,48.1,39.1,33.3,34.4,29.7,25.6,92,70,49,30.07,29.90,13,6,22,0.02
2013-3-24,33.6,30.4,29.2,31.8,29.3,27.8,96,96,93,29.95,29.74,14,9,20,0.10
2013-3-25,33.3,30.4,28.3,29.3,27.9,26.4,96,91,81,30.23,29.90,11,5,18,0.10
2013-3-26,39.1,32.4,26.8,27.6,25.1,22.8,86,75,56,30.36,30.23,7,3,12,0.03
2013-3-27,44.7,34.4,22.4,32.2,26.6,19.7,93,74,52,30.40,30.30,7,2,18,0.00
2013-3-28,52.7,41.8,33.5,40.5,33.4,27.9,82,72,59,30.34,30.22,10,5,16,0.00
2013-3-29,60.9,46.2,33.1,46.0,37.9,30.1,90,74,48,30.26,30.17,8,3,12,0.00
2013-3-30,52.1,46.6,39.1,46.6,42.7,36.5,95,86,73,30.18,29.89,15,6,28,0.00
2013-3-31,63.2,52.4,41.8,48.9,42.1,30.9,96,71,43,29.99,29.84,11,5,18,0.00
2013-4-1,44.1,37.0,30.3,33.0,23.4,17.4,78,59,37,30.28,29.98,13,6,19,0.00
2013-4-2,47.9,36.5,23.5,26.1,21.6,13.7,84,57,32,30.38,30.27,8,3,12,0.00
2013-4-3,49.2,38.9,28.1,32.1,24.3,19.9,79,58,36,30.43,30.25,10,4,14,0.00
2013-4-4,60.7,46.8,33.7,32.7,27.7,24.5,77,50,29,30.26,30.03,6,1,9,0.00
2013-4-5,64.0,51.2,38.5,40.7,35.0,29.1,85,56,31,30.19,29.94,9,3,12,0.00
2013-4-6,72.1,61.3,52.9,52.2,43.3,37.6,61,52,40,29.95,29.61,23,12,35,0.00
2013-4-7,75.8,61.6,45.9,52.9,45.4,41.0,84,58,33,29.89,29.70,10,3,15,0.03
2013-4-8,71.7,63.0,54.6,63.3,57.8,50.0,95,84,72,29.77,29.58,20,5,31,0.83
2013-4-9,75.1,68.5,62.6,64.6,60.9,58.1,88,77,68,29.78,29.69,17,8,25,0.00
2013-4-10,69.2,52.1,46.3,62.9,49.8,44.6,97,92,80,29.88,29.59,18,7,28,1.48
2013-4-11,47.2,41.1,37.6,46.4,37.5,31.0,97,87,76,29.71,29.63,15,8,21,0.02
2013-4-12,42.4,38.9,36.2,35.9,32.8,30.3,83,79,73,30.00,29.68,13,8,20,0.00
2013-4-13,53.9,44.4,33.0,42.1,35.5,28.9,92,72,54,30.06,29.85,10,5,14,0.00
2013-4-14,78.2,62.5,47.8,56.4,47.9,40.5,93,62,33,29.85,29.48,20,10,27,0.31
2013-4-15,58.4,53.0,43.8,56.7,46.5,35.7,94,79,61,29.99,29.67,12,4,19,0.12
2013-4-16,48.2,44.4,39.6,42.5,38.3,34.3,90,79,69,30.18,29.97,13,7,16,0.16
2013-4-17,59.5,49.5,45.0,58.5,47.4,42.1,97,92,79,30.15,29.60,21,9,30,2.80
2013-4-18,61.9,50.7,38.0,61.0,48.1,30.8,98,91,76,29.77,29.44,21,9,27,1.69
2013-4-19,47.2,40.6,35.4,31.3,29.0,26.0,80,64,46,30.08,29.74,17,8,24,0.01
2013-4-20,45.4,35.2,28.7,30.6,27.3,24.8,87,73,50,30.31,30.07,5,2,9,0.00
2013-4-22,69.2,64.1,56.8,47.5,44.4,40.0,70,50,37,30.13,29.91,13,5,18,0.00
2013-4-23,56.7,42.6,37.5,48.5,39.3,35.4,94,89,70,30.07,29.89,13,6,18,0.63
2013-4-24,51.9,42.4,34.6,35.9,32.2,29.0,93,69,44,30.20,30.05,13,6,19,0.01
2013-4-25,62.2,50.3,36.1,40.4,34.6,29.6,88,57,33,30.32,30.17,11,5,19,0.00
2013-4-26,59.8,54.4,49.3,48.8,44.4,37.4,82,69,60,30.29,30.19,17,9,24,0.00
2013-4-27,52.5,49.8,46.7,50.3,47.5,43.7,97,92,80,30.26,29.96,6,3,13,0.21
2013-4-28,65.0,55.0,49.8,55.0,50.9,48.6,100,87,64,29.96,29.83,7,3,11,0.00
2013-4-29,83.8,66.4,47.4,66.5,56.7,45.8,95,73,47,29.86,29.63,15,8,22,0.01
2013-4-30,84.6,74.4,64.5,61.6,57.4,51.4,82,58,34,29.85,29.66,16,10,23,0.00
2013-5-1,82.0,70.4,56.6,60.6,54.4,47.2,82,59,36,30.07,29.85,11,6,15,0.00
2013-5-2,56.5,44.3,36.5,47.6,39.9,34.7,97,84,72,30.24,30.07,11,8,20,0.27
2013-5-3,40.6,37.8,35.6,39.5,36.2,33.8,96,94,92,30.18,29.79,12,7,18,1.63
2013-5-4,47.4,43.0,37.8,45.5,41.2,36.8,97,93,86,30.03,29.79,7,2,10,0.02
2013-5-5,67.5,54.7,43.3,58.3,51.3,42.5,98,89,70,30.04,29.91,10,3,16,0.12
2013-5-6,73.3,62.7,52.4,57.1,54.0,51.0,96,75,50,30.02,29.95,11,4,15,0.00
2013-5-7,78.2,66.0,53.5,56.0,50.7,45.9,83,61,34,30.02,29.94,6,1,8,0.00
2013-5-8,78.8,65.7,51.2,59.5,54.2,47.6,92,68,42,30.00,29.92,13,2,13,0.00
2013-5-9,71.2,62.1,58.2,64.7,59.7,55.6,96,92,78,29.92,29.78,12,4,20,1.30
2013-5-10,58.9,56.1,51.3,57.5,53.1,49.3,95,90,81,30.00,29.82,9,4,14,0.01
2013-5-11,60.4,53.4,45.4,51.5,40.1,30.6,97,65,35,30.18,29.98,16,6,25,0.01
2013-5-12,60.4,49.6,39.5,38.2,30.8,24.7,83,50,29,30.25,30.13,9,3,13,0.00
2013-5-13,72.5,57.9,38.0,50.5,41.8,33.6,92,58,33,30.19,29.94,10,5,14,0.00
2013-5-14,88.8,74.4,57.6,64.0,57.1,49.3,81,57,38,29.94,29.70,15,9,22,0.00
2013-5-15,86.1,76.7,67.4,67.6,61.5,55.5,92,60,47,29.84,29.74,13,6,25,0.07
2013-5-16,84.0,71.3,62.3,67.7,64.6,58.3,96,81,52,29.89,29.78,13,4,19,0.06
2013-5-17,78.8,68.5,58.3,67.8,61.8,54.4,90,79,66,29.93,29.86,6,2,11,0.01
2013-5-18,82.3,71.8,60.6,69.1,65.2,59.5,97,81,60,29.95,29.80,7,2,11,0.00
2013-5-19,88.3,76.6,65.7,74.3,67.5,62.3,90,75,53,29.83,29.57,20,6,28,0.02
2013-5-20,82.6,68.7,62.0,68.3,62.4,59.2,93,81,49,29.79,29.57,18,9,26,0.66
2013-5-21,76.5,67.8,61.8,63.6,60.2,56.8,95,78,56,29.71,29.64,13,8,20,0.00
2013-5-22,67.8,63.1,59.9,57.7,55.1,52.1,87,76,65,29.85,29.63,12,5,18,0.00
2013-5-23,66.3,60.0,54.9,56.1,53.1,50.5,91,78,60,30.23,29.85,11,4,14,0.00
2013-5-24,68.8,58.5,47.2,50.8,46.9,41.3,95,68,39,30.40,30.23,8,2,20,0.00
2013-5-25,66.7,57.6,51.9,59.5,52.0,46.0,95,82,68,30.32,30.11,14,5,16,1.31
2013-5-26,75.1,62.9,52.5,67.3,58.6,49.3,96,86,75,30.15,29.93,9,4,13,0.12
2013-5-27,74.7,66.6,62.4,67.2,63.6,61.2,97,90,74,29.95,29.60,20,4,26,2.13
2013-5-28,76.5,70.9,60.2,71.4,66.7,58.5,97,87,77,29.90,29.68,22,8,25,1.82
2013-5-29,83.8,73.6,60.9,72.1,66.3,59.5,95,79,60,29.92,29.71,15,8,20,0.20
2013-5-30,78.8,69.7,62.4,70.5,64.7,60.1,94,85,63,29.79,29.65,19,9,27,0.60
2013-5-31,71.3,65.3,61.0,68.5,63.2,58.2,96,93,85,29.85,29.63,10,4,16,0.78
2013-6-1,73.3,66.1,61.2,66.4,60.9,55.8,97,84,55,29.87,29.66,14,7,21,0.01
2013-6-2,63.4,59.8,53.8,57.3,53.7,49.6,88,81,68,30.04,29.85,8,3,13,0.00
2013-6-3,70.2,59.9,46.5,56.8,51.4,44.8,95,75,57,30.11,29.97,5,2,11,0.00
2013-6-4,74.9,64.2,52.9,63.5,56.6,50.6,93,77,63,30.08,29.94,9,2,13,0.00
2013-6-5,74.6,67.1,56.8,65.2,61.3,54.9,95,82,68,30.01,29.86,7,2,10,0.01
2013-6-6,74.6,67.1,60.6,64.0,56.9,51.7,96,72,48,29.90,29.84,7,3,11,0.00
2013-6-7,71.0,63.1,54.6,59.1,55.6,51.9,92,77,58,29.94,29.89,8,2,11,0.00
2013-6-8,78.3,66.6,52.2,59.4,55.1,50.4,96,69,44,29.94,29.84,9,3,13,0.00
2013-6-9,74.3,66.4,62.1,64.2,60.6,55.5,96,82,67,29.87,29.72,11,6,16,0.10
2013-6-10,78.3,68.7,62.0,65.7,62.4,60.4,95,81,61,29.88,29.73,7,2,10,0.00
2013-6-11,89.0,75.9,60.7,74.3,67.8,59.1,96,78,54,29.90,29.75,13,4,15,0.00
2013-6-12,93.8,82.0,69.5,74.8,70.9,65.2,91,70,50,29.85,29.64,20,8,27,0.00
2013-6-13,83.4,74.5,67.0,65.2,60.7,55.2,83,64,41,29.98,29.75,10,4,20,0.00
2013-6-14,78.8,69.4,60.4,67.6,63.1,58.4,95,81,58,30.10,29.84,16,3,23,0.11
2013-6-15,88.8,74.1,66.5,76.1,68.4,63.1,96,83,61,30.05,29.85,31,6,37,1.71
2013-6-16,81.2,73.1,66.1,72.7,68.8,64.8,96,87,70,29.96,29.88,8,3,11,0.08
2013-6-17,82.8,74.9,67.1,73.1,69.2,65.8,97,84,61,29.95,29.87,7,2,11,0.00
2013-6-18,82.8,74.6,67.3,68.5,64.7,59.2,97,74,47,29.97,29.88,8,3,16,0.01
2013-6-19,83.9,73.3,62.5,68.1,63.2,59.2,92,73,45,30.06,29.97,5,1,8,0.00
2013-6-20,88.3,78.3,64.9,71.6,67.3,61.6,89,70,51,30.06,29.96,11,5,16,0.00
2013-6-21,91.5,82.9,73.6,76.3,72.4,67.5,82,71,57,30.01,29.87,12,8,19,0.00
2013-6-22,91.7,82.1,73.8,76.8,73.0,68.0,86,75,55,30.01,29.88,11,8,18,0.00
2013-6-23,87.8,73.6,69.0,75.6,68.2,66.1,95,84,63,29.99,29.80,15,6,23,0.87
2013-6-24,88.8,78.7,69.3,77.0,71.4,66.0,92,79,62,30.00,29.80,12,7,22,0.00
2013-6-25,88.5,81.5,75.1,77.6,73.6,69.9,86,77,67,29.88,29.74,13,6,19,0.00
2013-6-26,89.6,79.1,69.5,80.1,72.7,64.8,91,81,68,29.80,29.67,20,5,28,0.15
2013-6-27,88.8,79.4,69.9,73.9,70.0,66.0,88,74,54,29.90,29.79,8,2,10,0.00
2013-6-28,85.9,78.0,70.1,70.0,62.6,55.1,90,62,37,29.84,29.71,11,4,19,0.00
2013-6-29,78.1,69.5,63.3,65.2,61.5,58.6,93,76,59,29.79,29.67,11,5,23,0.33
2013-6-30,74.1,68.1,63.2,65.5,62.4,60.5,93,83,68,29.97,29.79,10,5,18,0.03
2013-7-1,78.4,69.6,59.7,62.3,57.5,53.6,92,67,46,30.04,29.97,12,6,16,0.01
2013-7-2,78.7,69.1,59.0,64.3,56.9,53.8,86,67,44,30.07,30.00,12,4,14,0.00
2013-7-3,83.0,70.3,58.3,64.5,60.2,56.6,95,73,43,30.05,29.96,7,1,8,0.00
2013-7-4,85.7,74.0,60.8,63.8,60.5,55.5,94,65,37,30.05,29.96,8,2,12,0.00
2013-7-5,86.2,75.7,63.9,66.5,63.6,60.9,91,68,46,30.03,29.94,9,4,15,0.00
2013-7-6,89.3,77.4,65.1,69.5,65.9,62.9,93,70,44,30.00,29.90,9,4,12,0.00
2013-7-7,90.3,80.0,69.3,72.0,68.1,64.8,87,68,48,29.97,29.91,10,6,14,0.00
2013-7-8,89.5,81.3,73.4,74.9,71.1,67.0,88,72,58,30.02,29.93,11,5,19,0.04
2013-7-9,93.0,84.2,77.1,77.6,73.5,70.5,84,71,54,29.99,29.83,12,6,16,0.02
2013-7-10,89.0,81.6,67.9,74.2,68.4,60.8,82,65,46,30.00,29.80,11,4,14,0.00
2013-7-11,83.2,72.7,61.7,64.0,61.0,58.2,89,69,46,30.07,30.00,7,2,12,0.00
2013-7-12,84.8,72.7,60.8,62.5,58.2,51.6,91,64,33,30.11,30.01,7,2,13,0.00
2013-7-13,82.7,71.6,58.4,64.9,60.5,55.0,89,70,49,30.09,30.00,6,1,10,0.00
2013-7-14,87.2,75.2,63.2,68.6,65.1,60.6,94,73,48,30.12,30.04,9,2,12,0.00
2013-7-15,89.8,78.8,69.1,75.6,71.8,67.0,94,80,56,30.19,30.11,10,1,13,0.03
2013-7-16,91.6,80.8,71.0,75.8,72.9,69.7,96,79,55,30.25,30.18,7,2,11,0.00
2013-7-17,93.8,83.1,72.4,76.0,73.1,70.5,95,74,49,30.29,30.15,7,1,9,0.00
2013-7-18,94.2,84.3,74.0,75.9,73.0,70.2,91,71,48,30.18,29.95,7,2,12,0.00
2013-7-19,95.4,85.6,75.6,73.8,71.0,66.9,84,64,42,29.96,29.80,13,6,15,0.00
2013-7-20,86.5,79.9,70.5,71.5,68.8,64.4,86,70,53,29.89,29.81,7,3,9,0.00
2013-7-21,77.5,71.7,66.2,72.4,68.6,64.8,96,90,80,29.89,29.80,8,2,12,0.49
2013-7-22,88.2,75.8,63.8,77.3,70.8,62.9,98,86,61,29.85,29.73,8,2,12,0.01
2013-7-23,83.2,73.6,65.7,70.0,65.5,60.8,96,77,54,29.92,29.75,9,4,12,0.15
2013-7-24,77.3,68.7,60.9,62.8,60.1,57.3,94,75,53,30.03,29.92,7,2,11,0.00
2013-7-25,83.2,70.6,57.3,65.6,61.3,55.7,96,74,51,30.10,30.01,9,2,13,0.00
2013-7-26,79.8,71.8,64.3,73.7,65.3,56.3,92,81,54,30.03,29.89,10,4,13,0.07
2013-7-27,72.6,64.1,55.8,57.5,52.5,48.6,91,68,45,30.03,29.96,8,3,14,0.00
2013-7-28,78.0,65.0,51.1,55.1,51.1,47.6,93,65,37,30.05,29.98,7,3,12,0.00
2013-7-29,77.3,64.6,52.1,65.2,58.4,49.9,94,82,51,30.13,30.05,7,1,12,0.13
2013-7-30,79.1,71.1,64.9,72.6,67.9,63.1,96,90,79,30.07,29.96,8,3,14,0.49
2013-7-31,78.4,70.9,66.4,69.4,66.8,64.3,96,87,68,30.06,29.99,5,2,10,0.00
2013-8-1,86.1,74.2,63.7,69.9,65.1,59.6,96,76,42,30.06,29.93,5,1,8,0.00
2013-8-2,81.7,72.3,67.3,72.3,67.8,64.6,97,86,71,29.93,29.87,9,3,12,0.02
2013-8-3,82.5,73.2,65.9,67.7,64.0,59.7,97,75,49,30.12,29.93,7,2,10,0.01
2013-8-4,80.6,70.2,58.6,64.9,61.8,56.8,95,76,53,30.17,30.04,7,1,9,0.00
2013-8-5,80.2,73.2,67.4,73.4,68.0,61.6,94,84,77,30.07,29.80,10,5,13,0.00
2013-8-6,85.4,75.7,67.0,75.8,71.5,65.9,98,88,69,29.87,29.78,7,2,11,0.01
2013-8-7,83.5,75.7,69.9,77.5,72.4,65.9,97,90,78,29.93,29.75,8,2,12,0.49
2013-8-8,79.3,70.9,62.5,70.7,66.5,61.0,96,86,69,29.98,29.91,8,2,10,0.01
2013-8-9,80.3,72.9,67.2,70.8,67.2,64.0,96,83,59,30.07,29.95,5,0,8,0.00
2013-8-10,81.4,72.5,63.7,67.3,61.7,55.7,91,71,46,30.16,30.07,9,3,12,0.00
2013-8-11,84.5,72.2,59.1,68.4,63.2,57.2,94,75,52,30.13,30.00,7,2,11,0.00
2013-8-12,82.2,72.2,64.7,73.1,66.4,61.6,91,82,67,30.03,29.92,7,1,11,0.00
2013-8-13,78.7,68.2,59.9,63.3,59.6,55.1,92,76,52,30.14,29.96,9,3,14,0.00
2013-8-14,75.3,63.8,51.6,56.7,52.6,47.0,94,70,39,30.22,30.11,6,1,10,0.00
2013-8-15,74.0,65.0,56.9,58.9,56.0,53.4,93,74,51,30.16,30.07,4,1,9,0.00
2013-8-16,77.8,67.0,57.1,59.5,57.1,54.6,92,73,48,30.16,30.10,7,2,11,0.00
2013-8-17,80.7,67.3,55.3,61.7,57.1,52.8,93,72,46,30.19,30.10,6,1,11,0.00
2013-8-18,82.9,69.5,56.7,66.8,60.5,54.4,93,75,51,30.17,30.06,6,1,8,0.00
2013-8-19,84.0,73.0,62.3,67.7,64.3,59.9,94,76,52,30.10,29.99,8,2,14,0.00
2013-8-20,87.0,75.2,62.9,70.2,65.4,61.1,96,74,47,30.07,29.98,9,3,14,0.00
2013-8-21,89.2,77.6,66.8,70.2,67.3,63.8,91,72,51,30.07,29.97,10,4,14,0.00
2013-8-22,88.2,78.2,69.0,74.9,70.7,66.1,94,79,56,30.07,29.98,7,2,9,0.00
2013-8-23,89.9,78.3,67.4,73.8,70.4,66.0,97,78,54,30.08,30.00,6,1,10,0.00
2013-8-24,90.4,78.2,67.9,74.8,69.9,66.1,95,77,53,30.16,30.06,7,2,11,0.00
2013-8-25,91.3,78.3,66.7,72.2,67.1,63.0,92,71,41,30.22,30.10,9,4,14,0.00
2013-8-26,93.7,80.5,67.0,75.2,69.6,63.5,93,72,46,30.14,29.99,9,4,16,0.00
2013-8-27,95.0,82.3,71.9,72.4,67.8,61.6,92,65,35,30.02,29.91,13,6,20,0.00
2013-8-28,96.8,83.5,71.2,71.3,67.4,64.8,83,61,36,29.99,29.92,9,5,14,0.00
2013-8-29,96.4,83.6,71.9,73.7,69.7,65.7,85,65,41,30.01,29.90,6,1,11,0.00
2013-8-30,100.8,86.3,73.3,75.5,70.7,66.3,92,63,34,29.91,29.75,10,4,16,0.00
2013-8-31,97.3,85.2,74.4,77.0,71.7,65.9,85,66,39,29.77,29.69,10,4,15,0.00
2013-9-1,90.6,78.3,68.6,74.2,67.4,58.9,97,72,43,29.86,29.74,7,2,10,0.00
2013-9-2,82.9,71.2,60.9,62.7,57.7,52.8,91,65,39,29.98,29.86,7,2,11,0.00
2013-9-3,83.9,68.0,53.9,59.2,54.2,48.8,94,65,31,30.09,29.98,4,1,10,0.00
2013-9-4,91.2,70.4,52.6,61.8,55.7,50.0,93,65,30,30.14,30.04,5,1,9,0.00
2013-9-5,90.6,74.3,59.0,65.0,60.2,56.2,93,65,37,30.16,30.09,5,1,10,0.00
2013-9-6,90.3,74.8,62.0,66.9,60.9,55.9,91,66,33,30.13,29.97,8,2,15,0.00
2013-9-7,94.6,78.9,63.3,68.7,64.7,58.1,88,64,40,29.99,29.84,9,4,14,0.00
2013-9-8,94.3,82.1,74.1,74.4,70.8,68.0,86,70,48,29.90,29.80,12,5,19,0.00
2013-9-9,98.7,84.1,73.2,71.6,66.9,58.5,92,61,34,29.90,29.81,13,6,21,0.00
2013-9-10,96.2,82.6,70.9,69.9,64.8,62.3,79,57,35,30.02,29.90,12,5,20,0.00
2013-9-11,96.0,82.6,71.8,70.1,64.6,61.0,84,57,33,30.07,29.96,12,4,19,0.00
2013-9-12,83.2,73.4,62.1,70.5,61.2,45.8,95,70,29,30.10,29.99,9,3,15,0.13
2013-9-13,74.8,62.4,51.3,55.9,47.9,38.0,87,63,28,30.17,30.08,9,3,15,0.00
2013-9-14,77.1,60.7,44.0,50.7,45.8,40.8,92,62,33,30.17,29.99,7,2,11,0.00
2013-9-15,80.6,65.7,57.2,65.2,56.3,45.6,92,73,47,30.15,29.93,11,6,18,0.05
2013-9-16,69.8,61.0,55.0,58.1,55.0,51.3,91,81,60,30.30,30.14,11,4,13,0.00
2013-9-17,67.4,61.0,54.6,63.5,57.6,51.3,95,89,82,30.24,30.03,7,2,11,0.01
2013-9-18,90.5,75.1,60.0,71.7,66.4,58.6,97,77,49,30.04,29.84,14,7,19,0.01
2013-9-19,92.4,80.6,69.7,70.8,68.6,66.2,91,69,45,29.88,29.74,14,8,20,0.70
2013-9-20,71.5,66.3,56.8,67.3,58.9,50.1,97,79,50,29.93,29.83,7,3,14,0.03
2013-9-21,70.4,59.0,48.8,51.6,48.8,46.3,91,72,44,30.00,29.90,6,2,0,0.00
2013-9-22,68.5,51.6,44.9,54.2,47.8,43.6,97,88,54,30.02,29.94,3,0,0,0.00
2013-9-23,49.2,49.2,49.2,47.3,47.3,47.3,93,93,93,29.95,29.95,0,0,0,0.00
2013-9-27,71.2,69.3,67.4,61.5,60.0,59.1,76,72,70,29.95,29.93,3,2,6,0.00
2013-9-28,76.1,66.6,56.2,70.0,62.2,54.4,95,86,69,30.04,29.87,14,6,21,0.38
2013-9-29,72.4,59.4,46.7,56.9,50.5,45.6,98,76,44,30.08,29.96,6,1,11,0.01
2013-9-30,76.7,61.7,46.2,63.6,54.8,44.3,94,80,54,29.96,29.84,10,4,14,0.00
2013-10-1,83.8,70.6,60.7,69.6,63.3,58.4,96,80,47,29.96,29.85,10,5,14,0.01
2013-10-2,85.6,71.0,59.6,69.6,64.8,58.3,97,83,52,30.01,29.88,8,1,14,0.18
2013-10-3,84.0,71.3,65.9,71.7,67.4,63.3,96,88,65,29.89,29.72,15,4,19,0.24
2013-10-4,88.3,76.7,68.9,72.7,68.6,65.0,95,78,48,29.89,29.80,12,7,18,0.00
2013-10-5,75.6,62.1,47.0,69.6,58.6,43.9,93,89,81,29.90,29.81,9,5,12,0.10
2013-10-6,51.9,47.4,41.3,48.2,43.5,39.1,94,87,70,29.90,29.81,12,6,19,0.04
2013-10-7,71.3,57.6,48.7,50.0,47.1,44.4,91,71,39,30.10,29.90,8,3,12,0.00
2013-10-8,76.6,60.9,47.9,54.0,48.4,45.2,94,67,36,30.15,30.06,10,4,15,0.00
2013-10-9,76.0,59.2,45.6,51.7,47.5,43.7,96,69,33,30.16,30.05,6,1,11,0.00
2013-10-10,78.6,62.0,47.1,59.6,52.0,45.1,96,73,41,30.11,29.95,9,2,13,0.00
2013-10-11,80.2,67.0,53.4,61.8,57.5,51.4,96,74,47,29.96,29.81,13,6,19,0.00
2013-10-12,71.8,63.6,50.3,60.9,49.5,38.8,92,63,31,30.21,29.85,9,4,19,0.01
2013-10-13,67.9,55.2,44.4,42.0,37.3,31.2,78,54,26,30.41,30.21,6,2,11,0.00
2013-10-14,68.6,54.6,38.5,52.5,42.0,34.5,89,65,39,30.35,29.99,9,3,16,0.02
2013-10-15,65.5,59.1,46.9,60.7,52.0,40.6,98,79,51,29.99,29.83,12,6,16,0.19
2013-10-16,54.1,49.8,46.5,44.7,41.8,40.1,92,74,65,30.03,29.96,8,4,13,0.05
2013-10-17,64.5,52.6,45.4,48.7,44.1,40.3,96,76,43,29.99,29.85,12,5,18,0.02
2013-10-18,52.7,45.1,40.3,43.7,38.9,34.8,94,80,53,30.06,29.90,7,4,13,0.05
2013-10-19,57.2,45.5,35.5,41.8,37.7,33.9,95,76,46,30.02,29.88,14,7,22,0.01
2013-10-20,72.5,56.1,42.0,45.5,41.5,38.1,89,62,33,29.91,29.75,16,8,23,0.00
2013-10-21,57.6,47.5,39.3,45.0,36.2,31.0,83,65,47,30.05,29.86,9,3,13,0.00
2013-10-22,55.9,43.7,35.4,45.8,38.6,32.3,92,82,67,30.04,29.80,11,5,20,0.01
2013-10-23,46.6,39.0,33.3,36.1,32.4,25.8,94,79,46,30.14,30.04,8,3,13,0.00
2013-10-24,45.3,38.2,31.2,36.7,28.5,23.2,94,69,44,30.42,30.14,9,4,19,0.01
2013-10-25,55.7,41.5,27.5,32.0,27.4,24.4,89,61,33,30.49,30.15,11,5,19,0.00
2013-10-26,58.4,47.5,37.0,39.7,31.1,24.1,73,54,31,30.15,30.01,12,6,16,0.00
2013-10-27,59.6,43.2,27.3,33.9,29.6,24.4,91,62,33,30.14,29.98,9,3,16,0.00
2013-10-28,69.7,49.6,32.3,38.9,33.6,27.9,88,59,25,30.22,30.03,5,1,8,0.00
2013-10-29,57.2,50.1,42.1,54.3,45.7,35.6,97,85,66,30.21,30.02,8,2,12,0.08
2013-10-30,66.8,61.0,54.3,65.6,60.1,53.5,98,97,94,30.02,29.72,9,3,15,0.66
2013-10-31,63.6,54.5,45.2,62.4,53.0,43.6,97,95,89,29.72,29.41,11,6,18,0.85
2013-11-1,57.2,48.5,42.7,44.0,42.2,40.0,96,80,56,29.85,29.54,11,5,18,0.01
2013-11-2,53.7,45.8,35.5,41.3,37.6,31.8,89,74,47,30.18,29.84,9,4,14,0.00
2013-11-3,58.1,45.0,29.7,39.7,34.2,28.1,96,69,41,30.26,30.06,13,4,20,0.00
2013-11-4,59.0,52.8,47.5,48.4,43.5,37.5,78,71,65,30.14,30.03,12,6,18,0.00
2013-11-5,57.9,55.1,52.3,55.7,52.6,47.8,96,91,75,30.18,29.88,13,7,20,0.20
2013-11-6,58.4,44.6,33.4,57.1,41.1,30.6,96,88,72,30.29,29.82,12,5,23,0.36
2013-11-7,53.9,40.3,29.8,39.3,31.6,26.8,95,73,44,30.35,30.28,10,3,14,0.00
2013-11-8,57.2,43.6,25.6,38.6,32.3,23.6,94,67,44,30.34,29.96,13,7,22,0.00
2013-11-9,66.7,54.1,46.3,42.1,37.9,32.4,77,56,29,30.27,29.97,12,6,23,0.00
2013-11-10,53.9,43.4,34.7,35.6,32.2,29.5,86,66,43,30.43,30.23,7,2,9,0.00
2013-11-11,57.2,42.6,26.3,47.2,33.6,20.1,87,71,55,30.60,30.14,13,7,23,0.00
2013-11-12,34.2,24.8,18.1,20.3,14.6,11.8,89,67,41,30.84,30.60,8,4,18,0.00
2013-11-13,46.4,32.5,17.4,20.7,16.5,12.5,84,55,28,30.72,30.23,14,7,19,0.00
2013-11-14,54.7,42.9,34.6,27.6,23.5,19.7,63,47,31,30.23,29.98,17,10,23,0.00
2013-11-15,57.9,47.7,41.2,43.9,35.1,23.8,87,62,48,30.00,29.82,12,7,18,0.00
2013-11-16,64.1,57.9,47.7,58.2,53.4,44.0,89,85,78,29.82,29.49,19,12,29,0.25
2013-11-17,72.1,58.8,44.3,63.3,50.5,39.9,90,75,48,29.96,29.28,25,10,39,0.01
2013-11-18,53.1,43.5,36.0,40.0,33.6,28.5,90,70,43,30.30,29.96,9,4,15,0.00
2013-11-19,53.0,39.4,28.3,33.1,29.4,24.5,88,69,44,30.34,30.16,9,3,15,0.00
2013-11-20,44.3,39.7,36.9,39.5,34.2,29.0,94,81,63,30.16,29.97,11,6,19,0.48
2013-11-21,49.0,45.0,35.5,46.2,41.7,33.9,95,88,79,30.29,30.03,10,4,15,0.15
2013-11-22,35.5,31.5,23.5,33.7,28.1,20.4,94,87,81,30.59,30.29,12,7,20,0.09
2013-11-23,24.4,20.8,13.0,20.3,13.2,8.2,89,73,55,30.80,30.59,14,7,21,0.00
2013-11-24,29.2,19.8,9.4,16.0,11.3,6.5,89,70,46,30.80,30.41,9,4,13,0.00
2013-11-25,36.3,31.8,26.9,23.3,18.9,14.5,77,59,47,30.41,30.16,13,7,19,0.00
2013-11-26,35.4,27.4,20.1,26.8,19.0,10.8,90,71,51,30.33,30.12,13,7,20,0.00
2013-11-27,29.1,21.2,13.5,15.5,10.6,7.8,80,64,44,30.42,30.22,11,4,13,0.00
2013-11-28,40.9,30.0,23.6,23.6,19.2,15.4,76,64,49,30.54,30.17,11,5,21,0.00
2013-11-29,44.2,30.1,18.1,27.5,21.8,14.5,89,72,49,30.59,30.33,9,3,12,0.00
2013-11-30,53.5,41.4,31.9,38.2,33.1,26.5,92,73,54,30.33,30.07,13,5,16,0.00
2013-12-1,51.5,39.4,29.2,36.9,32.6,26.9,95,78,54,30.14,29.92,4,1,5,0.00
2013-12-2,54.4,41.4,32.9,42.6,36.2,29.4,95,82,63,29.92,29.64,9,2,12,0.00
2013-12-3,54.5,45.4,34.7,50.3,43.2,33.2,100,92,84,29.65,29.55,12,4,15,0.00
2013-12-4,59.8,46.1,27.7,53.2,42.6,22.5,96,88,73,29.91,29.47,15,7,21,0.00
2013-12-5,27.6,21.9,19.1,22.5,12.9,9.5,81,68,60,30.37,29.90,10,6,20,0.00
2013-12-6,19.5,15.5,10.7,10.5,5.1,1.8,74,63,50,30.67,30.36,9,7,14,0.00
2013-12-7,20.7,12.7,5.6,7.7,3.6,0.9,82,68,43,30.79,30.52,8,4,12,0.00
2013-12-8,23.8,20.9,16.2,21.5,16.2,7.2,92,82,66,30.53,30.04,9,5,13,0.00
2013-12-9,22.9,15.9,8.7,19.2,10.2,3.1,88,78,67,30.36,30.10,10,4,15,0.00
2013-12-10,32.6,20.2,6.0,16.1,9.7,1.3,81,64,44,30.31,30.18,17,6,23,0.00
2013-12-11,26.9,17.8,3.5,20.7,8.1,-2.4,79,66,40,30.68,30.26,13,5,18,0.00
2013-12-12,40.0,22.7,3.2,19.8,11.4,-2.0,80,63,43,30.64,30.23,15,6,20,0.00
2013-12-13,35.4,30.5,22.3,31.7,26.0,17.4,96,84,60,30.23,29.94,9,4,14,0.22
2013-12-14,32.2,26.8,18.4,31.2,25.1,15.2,97,93,87,30.19,29.88,0,0,0,0.02
2013-12-15,27.6,21.1,13.8,23.2,18.6,11.4,93,90,82,30.19,30.05,7,1,8,0.10
2013-12-16,25.5,22.2,16.5,23.9,20.5,14.3,100,93,89,30.19,30.02,11,4,12,0.00
2013-12-17,40.3,29.9,19.2,32.7,23.1,15.9,95,77,52,30.27,30.16,8,4,12,0.33
2013-12-18,48.8,36.2,20.2,35.4,26.0,13.5,79,67,56,30.25,29.84,16,9,23,0.15
2013-12-19,53.3,46.8,40.2,47.6,41.4,34.9,89,82,71,29.86,29.69,10,6,14,0.00
2013-12-20,51.0,35.7,29.4,48.0,34.2,27.5,96,94,87,29.89,29.67,7,4,12,0.09
2013-12-21,30.4,28.5,27.1,29.0,26.9,25.1,95,94,92,29.89,29.64,11,5,14,0.01
2013-12-22,30.7,26.3,18.0,29.7,23.8,13.7,96,90,82,30.33,29.66,7,3,10,0.00
2013-12-23,18.2,10.4,3.3,14.4,4.5,-3.7,86,77,65,30.64,30.33,7,3,12,0.00
2013-12-24,23.0,10.8,-2.0,17.2,4.7,-6.3,83,76,67,30.64,30.32,9,4,13,0.00
2013-12-25,33.4,29.0,23.0,30.3,25.7,17.2,94,87,78,30.34,30.22,12,6,19,0.00
2013-12-26,43.2,32.8,21.2,34.4,27.4,17.8,92,81,68,30.32,30.18,14,7,20,0.21
2013-12-27,49.9,38.5,28.1,37.7,32.2,26.0,93,79,58,30.33,30.17,12,7,20,0.03
2013-12-28,53.9,43.3,34.9,37.3,33.0,29.7,85,68,48,30.18,29.85,15,8,22,0.00
2013-12-29,39.8,22.1,10.0,31.5,14.8,-2.3,89,74,56,30.34,29.85,14,8,23,0.00
2013-12-30,26.5,14.8,4.4,15.6,3.5,-6.0,69,61,47,30.39,30.19,10,4,13,0.00
2013-12-31,40.0,26.0,14.1,26.9,19.3,9.7,92,76,57,30.40,30.11,11,4,13,0.00
2014-1-1,22.3,18.2,14.8,19.6,14.9,12.2,92,87,81,30.23,30.12,11,7,15,0.00
2014-1-2,15.1,9.9,-0.9,12.2,5.1,-4.9,89,81,69,30.53,30.23,10,5,16,0.00